< < Back
Terminal Aerodrome Forecast


Current Version              Previous Versions:   1  2  3  4  5  6  7  8  9  

Terminal Aerodrome Forecast

259
FTUS42 KCHS 292320
TAFSAV
TAF
KSAV 292320Z 3000/3024 20005KT P6SM SCT250
     FM301900 17008KT P6SM SCT050=

Latest METAR

078
SAUS80 KWBC 300300
MTRSAV
METAR KSAV 300253Z 19005KT 10SM SCT200 25/18 A3002 RMK AO2 SLP163
T02500183 53011


USA.gov is the U.S. government's official web portal to all federal, state and local government web resources and services.